sensor_id;sensor_type;location;lat;lon;timestamp;temperature;humidity
16154;DHT22;8182;55.648;13.208;2023-05-19T00:01:29;7.50;99.90
16154;DHT22;8182;55.648;13.208;2023-05-19T00:03:57;7.50;99.90
16154;DHT22;8182;55.648;13.208;2023-05-19T00:06:28;7.50;99.90
16154;DHT22;8182;55.648;13.208;2023-05-19T00:08:57;7.40;99.90
16154;DHT22;8182;55.648;13.208;2023-05-19T00:11:25;7.50;99.90
16154;DHT22;8182;55.648;13.208;2023-05-19T00:13:53;7.40;99.90
16154;DHT22;8182;55.648;13.208;2023-05-19T00:16:21;7.30;99.90
16154;DHT22;8182;55.648;13.208;2023-05-19T00:18:50;7.30;99.90
16154;DHT22;8182;55.648;13.208;2023-05-19T00:21:18;7.30;99.90
16154;DHT22;8182;55.648;13.208;2023-05-19T00:23:45;7.20;99.90
16154;DHT22;8182;55.648;13.208;2023-05-19T00:26:12;7.30;99.90
16154;DHT22;8182;55.648;13.208;2023-05-19T00:28:39;7.40;99.90
16154;DHT22;8182;55.648;13.208;2023-05-19T00:31:06;7.30;99.90
16154;DHT22;8182;55.648;13.208;2023-05-19T00:33:33;7.30;99.90
16154;DHT22;8182;55.648;13.208;2023-05-19T00:36:02;7.30;99.90
16154;DHT22;8182;55.648;13.208;2023-05-19T00:38:30;7.30;99.90
16154;DHT22;8182;55.648;13.208;2023-05-19T00:40:57;7.30;99.90
16154;DHT22;8182;55.648;13.208;2023-05-19T00:43:24;7.30;99.90
16154;DHT22;8182;55.648;13.208;2023-05-19T00:45:52;7.30;99.90
16154;DHT22;8182;55.648;13.208;2023-05-19T00:48:19;7.30;99.90
16154;DHT22;8182;55.648;13.208;2023-05-19T00:50:46;7.20;99.90
16154;DHT22;8182;55.648;13.208;2023-05-19T00:53:16;7.20;99.90
16154;DHT22;8182;55.648;13.208;2023-05-19T00:55:44;7.20;99.90
16154;DHT22;8182;55.648;13.208;2023-05-19T00:58:11;7.10;99.90
16154;DHT22;8182;55.648;13.208;2023-05-19T01:00:40;7.00;99.90
16154;DHT22;8182;55.648;13.208;2023-05-19T01:03:07;6.90;99.90
16154;DHT22;8182;55.648;13.208;2023-05-19T01:05:38;6.90;99.90
16154;DHT22;8182;55.648;13.208;2023-05-19T01:08:06;6.90;99.90
16154;DHT22;8182;55.648;13.208;2023-05-19T01:10:35;7.00;99.90
16154;DHT22;8182;55.648;13.208;2023-05-19T01:13:03;7.00;99.90
16154;DHT22;8182;55.648;13.208;2023-05-19T01:15:34;6.90;99.90
16154;DHT22;8182;55.648;13.208;2023-05-19T01:18:09;6.90;99.90
16154;DHT22;8182;55.648;13.208;2023-05-19T01:20:40;6.90;99.90
16154;DHT22;8182;55.648;13.208;2023-05-19T01:23:26;6.80;99.90
16154;DHT22;8182;55.648;13.208;2023-05-19T01:26:29;6.70;99.90
16154;DHT22;8182;55.648;13.208;2023-05-19T01:29:23;6.60;99.90
16154;DHT22;8182;55.648;13.208;2023-05-19T01:31:58;6.60;99.90
16154;DHT22;8182;55.648;13.208;2023-05-19T01:34:26;6.50;99.90
16154;DHT22;8182;55.648;13.208;2023-05-19T01:36:54;6.60;99.90
16154;DHT22;8182;55.648;13.208;2023-05-19T01:39:22;6.60;99.90
16154;DHT22;8182;55.648;13.208;2023-05-19T01:41:51;6.50;99.90
16154;DHT22;8182;55.648;13.208;2023-05-19T01:44:19;6.60;99.90
16154;DHT22;8182;55.648;13.208;2023-05-19T01:46:48;6.50;99.90
16154;DHT22;8182;55.648;13.208;2023-05-19T01:49:17;6.40;99.90
16154;DHT22;8182;55.648;13.208;2023-05-19T01:51:44;6.40;99.90
16154;DHT22;8182;55.648;13.208;2023-05-19T01:54:11;6.40;99.90
16154;DHT22;8182;55.648;13.208;2023-05-19T01:56:44;6.40;99.90
16154;DHT22;8182;55.648;13.208;2023-05-19T01:59:22;6.40;99.90
16154;DHT22;8182;55.648;13.208;2023-05-19T02:01:52;6.30;99.90
16154;DHT22;8182;55.648;13.208;2023-05-19T02:04:28;6.40;99.90
16154;DHT22;8182;55.648;13.208;2023-05-19T02:07:08;6.40;99.90
16154;DHT22;8182;55.648;13.208;2023-05-19T02:09:50;6.30;99.90
16154;DHT22;8182;55.648;13.208;2023-05-19T02:12:24;6.30;99.90
16154;DHT22;8182;55.648;13.208;2023-05-19T02:14:58;6.20;99.90
16154;DHT22;8182;55.648;13.208;2023-05-19T02:17:27;6.30;99.90
16154;DHT22;8182;55.648;13.208;2023-05-19T02:19:59;6.40;99.90
16154;DHT22;8182;55.648;13.208;2023-05-19T02:22:26;6.30;99.90
16154;DHT22;8182;55.648;13.208;2023-05-19T02:24:52;6.20;99.90
16154;DHT22;8182;55.648;13.208;2023-05-19T02:27:21;6.20;99.90
16154;DHT22;8182;55.648;13.208;2023-05-19T02:29:48;6.10;99.90
16154;DHT22;8182;55.648;13.208;2023-05-19T02:32:16;6.10;99.90
16154;DHT22;8182;55.648;13.208;2023-05-19T02:34:43;6.10;99.90
16154;DHT22;8182;55.648;13.208;2023-05-19T02:37:12;6.10;99.90
16154;DHT22;8182;55.648;13.208;2023-05-19T02:39:39;6.00;99.90
16154;DHT22;8182;55.648;13.208;2023-05-19T02:42:06;5.60;99.90
16154;DHT22;8182;55.648;13.208;2023-05-19T02:44:33;5.40;99.90
16154;DHT22;8182;55.648;13.208;2023-05-19T02:47:00;5.30;99.90
16154;DHT22;8182;55.648;13.208;2023-05-19T02:49:27;5.20;99.90
16154;DHT22;8182;55.648;13.208;2023-05-19T02:51:55;5.30;99.90
16154;DHT22;8182;55.648;13.208;2023-05-19T02:54:23;5.40;99.90
16154;DHT22;8182;55.648;13.208;2023-05-19T02:56:50;5.50;99.90
16154;DHT22;8182;55.648;13.208;2023-05-19T02:59:17;5.60;99.90
16154;DHT22;8182;55.648;13.208;2023-05-19T03:01:44;5.60;99.90
16154;DHT22;8182;55.648;13.208;2023-05-19T03:04:12;5.50;99.90
16154;DHT22;8182;55.648;13.208;2023-05-19T03:06:39;5.50;99.90
16154;DHT22;8182;55.648;13.208;2023-05-19T03:09:07;5.50;99.90
16154;DHT22;8182;55.648;13.208;2023-05-19T03:11:36;5.50;99.90
16154;DHT22;8182;55.648;13.208;2023-05-19T03:14:03;5.50;99.90
16154;DHT22;8182;55.648;13.208;2023-05-19T03:16:30;5.50;99.90
16154;DHT22;8182;55.648;13.208;2023-05-19T03:18:56;5.50;99.90
16154;DHT22;8182;55.648;13.208;2023-05-19T03:21:24;5.50;99.90
16154;DHT22;8182;55.648;13.208;2023-05-19T03:23:51;5.60;99.90
16154;DHT22;8182;55.648;13.208;2023-05-19T03:26:19;5.50;99.90
16154;DHT22;8182;55.648;13.208;2023-05-19T03:28:49;5.50;99.90
16154;DHT22;8182;55.648;13.208;2023-05-19T03:31:17;5.50;99.90
16154;DHT22;8182;55.648;13.208;2023-05-19T03:33:44;5.50;99.90
16154;DHT22;8182;55.648;13.208;2023-05-19T03:36:11;5.60;99.90
16154;DHT22;8182;55.648;13.208;2023-05-19T03:38:38;5.50;99.90
16154;DHT22;8182;55.648;13.208;2023-05-19T03:41:05;5.50;99.90
16154;DHT22;8182;55.648;13.208;2023-05-19T03:43:32;5.60;99.90
16154;DHT22;8182;55.648;13.208;2023-05-19T03:46:00;5.40;99.90
16154;DHT22;8182;55.648;13.208;2023-05-19T03:48:27;5.40;99.90
16154;DHT22;8182;55.648;13.208;2023-05-19T03:50:54;5.50;99.90
16154;DHT22;8182;55.648;13.208;2023-05-19T03:53:22;5.50;99.90
16154;DHT22;8182;55.648;13.208;2023-05-19T03:55:49;5.50;99.90
16154;DHT22;8182;55.648;13.208;2023-05-19T03:58:16;5.60;99.90
16154;DHT22;8182;55.648;13.208;2023-05-19T04:00:43;5.70;99.90
16154;DHT22;8182;55.648;13.208;2023-05-19T04:03:11;5.70;99.90
16154;DHT22;8182;55.648;13.208;2023-05-19T04:05:38;5.80;99.90
16154;DHT22;8182;55.648;13.208;2023-05-19T04:08:05;5.80;99.90
16154;DHT22;8182;55.648;13.208;2023-05-19T04:10:32;5.90;99.90
16154;DHT22;8182;55.648;13.208;2023-05-19T04:12:59;5.90;99.90
16154;DHT22;8182;55.648;13.208;2023-05-19T04:15:26;6.00;99.90
16154;DHT22;8182;55.648;13.208;2023-05-19T04:17:54;6.00;99.90
16154;DHT22;8182;55.648;13.208;2023-05-19T04:20:22;6.00;99.90
16154;DHT22;8182;55.648;13.208;2023-05-19T04:22:49;6.00;99.90
16154;DHT22;8182;55.648;13.208;2023-05-19T04:25:16;6.20;99.90
16154;DHT22;8182;55.648;13.208;2023-05-19T04:27:44;6.30;99.90
16154;DHT22;8182;55.648;13.208;2023-05-19T04:30:13;6.30;99.90
16154;DHT22;8182;55.648;13.208;2023-05-19T04:32:46;6.40;99.90
16154;DHT22;8182;55.648;13.208;2023-05-19T04:35:13;6.50;99.90
16154;DHT22;8182;55.648;13.208;2023-05-19T04:37:43;6.60;99.90
16154;DHT22;8182;55.648;13.208;2023-05-19T04:40:11;6.70;99.90
16154;DHT22;8182;55.648;13.208;2023-05-19T04:42:38;6.80;99.90
16154;DHT22;8182;55.648;13.208;2023-05-19T04:45:08;6.90;99.90
16154;DHT22;8182;55.648;13.208;2023-05-19T04:47:37;7.00;99.90
16154;DHT22;8182;55.648;13.208;2023-05-19T04:50:04;7.10;99.90
16154;DHT22;8182;55.648;13.208;2023-05-19T04:52:32;7.20;99.90
16154;DHT22;8182;55.648;13.208;2023-05-19T04:55:00;7.20;99.90
16154;DHT22;8182;55.648;13.208;2023-05-19T04:57:27;7.30;99.90
16154;DHT22;8182;55.648;13.208;2023-05-19T04:59:54;7.30;99.90
16154;DHT22;8182;55.648;13.208;2023-05-19T05:02:24;7.40;99.90
16154;DHT22;8182;55.648;13.208;2023-05-19T05:04:52;7.50;99.90
16154;DHT22;8182;55.648;13.208;2023-05-19T05:07:21;7.60;99.90
16154;DHT22;8182;55.648;13.208;2023-05-19T05:09:48;7.70;99.90
16154;DHT22;8182;55.648;13.208;2023-05-19T05:12:18;7.80;99.90
16154;DHT22;8182;55.648;13.208;2023-05-19T05:14:45;7.80;99.90
16154;DHT22;8182;55.648;13.208;2023-05-19T05:17:13;8.00;99.90
16154;DHT22;8182;55.648;13.208;2023-05-19T05:19:41;8.10;99.90
16154;DHT22;8182;55.648;13.208;2023-05-19T05:22:09;8.20;99.90
16154;DHT22;8182;55.648;13.208;2023-05-19T05:24:36;8.30;99.90
16154;DHT22;8182;55.648;13.208;2023-05-19T05:27:04;8.60;99.90
16154;DHT22;8182;55.648;13.208;2023-05-19T05:29:34;8.70;99.90
16154;DHT22;8182;55.648;13.208;2023-05-19T05:32:01;8.80;99.90
16154;DHT22;8182;55.648;13.208;2023-05-19T05:34:28;9.00;99.90
16154;DHT22;8182;55.648;13.208;2023-05-19T05:36:55;9.10;99.90
16154;DHT22;8182;55.648;13.208;2023-05-19T05:39:22;9.40;99.90
16154;DHT22;8182;55.648;13.208;2023-05-19T05:41:49;9.60;99.90
16154;DHT22;8182;55.648;13.208;2023-05-19T05:44:16;9.80;99.90
16154;DHT22;8182;55.648;13.208;2023-05-19T05:46:47;10.00;99.90
16154;DHT22;8182;55.648;13.208;2023-05-19T05:49:15;10.10;99.90
16154;DHT22;8182;55.648;13.208;2023-05-19T05:51:42;10.50;99.90
16154;DHT22;8182;55.648;13.208;2023-05-19T05:54:11;10.80;99.90
16154;DHT22;8182;55.648;13.208;2023-05-19T05:56:41;10.90;99.90
16154;DHT22;8182;55.648;13.208;2023-05-19T05:59:08;11.10;99.90
16154;DHT22;8182;55.648;13.208;2023-05-19T06:01:35;11.40;99.90
16154;DHT22;8182;55.648;13.208;2023-05-19T06:04:07;11.50;99.90
16154;DHT22;8182;55.648;13.208;2023-05-19T06:06:34;11.80;99.90
16154;DHT22;8182;55.648;13.208;2023-05-19T06:09:02;12.10;99.90
16154;DHT22;8182;55.648;13.208;2023-05-19T06:11:30;12.20;99.90
16154;DHT22;8182;55.648;13.208;2023-05-19T06:13:57;12.40;99.90
16154;DHT22;8182;55.648;13.208;2023-05-19T06:16:23;12.50;99.90
16154;DHT22;8182;55.648;13.208;2023-05-19T06:18:50;12.90;99.90
16154;DHT22;8182;55.648;13.208;2023-05-19T06:21:19;13.20;99.90
16154;DHT22;8182;55.648;13.208;2023-05-19T06:23:46;13.50;99.90
16154;DHT22;8182;55.648;13.208;2023-05-19T06:26:13;13.80;99.90
16154;DHT22;8182;55.648;13.208;2023-05-19T06:28:41;13.60;99.90
16154;DHT22;8182;55.648;13.208;2023-05-19T06:31:08;13.90;99.90
16154;DHT22;8182;55.648;13.208;2023-05-19T06:33:35;13.80;99.90
16154;DHT22;8182;55.648;13.208;2023-05-19T06:36:02;13.90;99.90
16154;DHT22;8182;55.648;13.208;2023-05-19T06:38:31;14.20;99.90
16154;DHT22;8182;55.648;13.208;2023-05-19T06:40:58;14.10;99.90
16154;DHT22;8182;55.648;13.208;2023-05-19T06:43:25;14.00;99.90
16154;DHT22;8182;55.648;13.208;2023-05-19T06:45:52;14.00;99.90
16154;DHT22;8182;55.648;13.208;2023-05-19T06:48:19;14.00;99.90
16154;DHT22;8182;55.648;13.208;2023-05-19T06:50:46;14.00;99.90
16154;DHT22;8182;55.648;13.208;2023-05-19T06:53:12;14.00;99.90
16154;DHT22;8182;55.648;13.208;2023-05-19T06:55:41;14.00;99.90
16154;DHT22;8182;55.648;13.208;2023-05-19T06:58:09;14.20;99.90
16154;DHT22;8182;55.648;13.208;2023-05-19T07:00:36;14.10;99.90
16154;DHT22;8182;55.648;13.208;2023-05-19T07:03:03;14.20;99.90
16154;DHT22;8182;55.648;13.208;2023-05-19T07:05:30;14.10;99.90
16154;DHT22;8182;55.648;13.208;2023-05-19T07:07:57;14.20;99.90
16154;DHT22;8182;55.648;13.208;2023-05-19T07:10:25;14.30;99.90
16154;DHT22;8182;55.648;13.208;2023-05-19T07:12:53;14.50;99.90
16154;DHT22;8182;55.648;13.208;2023-05-19T07:15:20;14.50;99.90
16154;DHT22;8182;55.648;13.208;2023-05-19T07:17:47;14.70;99.90
16154;DHT22;8182;55.648;13.208;2023-05-19T07:20:14;14.90;99.90
16154;DHT22;8182;55.648;13.208;2023-05-19T07:22:41;15.10;99.90
16154;DHT22;8182;55.648;13.208;2023-05-19T07:25:08;15.40;99.90
16154;DHT22;8182;55.648;13.208;2023-05-19T07:27:35;15.90;99.90
16154;DHT22;8182;55.648;13.208;2023-05-19T07:30:05;16.00;99.90
16154;DHT22;8182;55.648;13.208;2023-05-19T07:32:32;16.30;99.90
16154;DHT22;8182;55.648;13.208;2023-05-19T07:34:59;16.40;99.90
16154;DHT22;8182;55.648;13.208;2023-05-19T07:37:26;16.40;99.90
16154;DHT22;8182;55.648;13.208;2023-05-19T07:39:53;16.60;99.90
16154;DHT22;8182;55.648;13.208;2023-05-19T07:42:23;16.60;99.90
16154;DHT22;8182;55.648;13.208;2023-05-19T07:44:50;16.20;99.90
16154;DHT22;8182;55.648;13.208;2023-05-19T07:47:18;16.40;99.90
16154;DHT22;8182;55.648;13.208;2023-05-19T07:49:45;16.50;99.90
16154;DHT22;8182;55.648;13.208;2023-05-19T07:52:12;16.80;99.90
16154;DHT22;8182;55.648;13.208;2023-05-19T07:54:39;16.90;99.90
16154;DHT22;8182;55.648;13.208;2023-05-19T07:57:06;17.10;99.90
16154;DHT22;8182;55.648;13.208;2023-05-19T07:59:34;17.30;99.90
16154;DHT22;8182;55.648;13.208;2023-05-19T08:02:01;17.70;99.90
16154;DHT22;8182;55.648;13.208;2023-05-19T08:04:29;17.60;99.90
16154;DHT22;8182;55.648;13.208;2023-05-19T08:06:56;17.90;99.90
16154;DHT22;8182;55.648;13.208;2023-05-19T08:09:24;17.80;99.90
16154;DHT22;8182;55.648;13.208;2023-05-19T08:11:51;18.00;99.90
16154;DHT22;8182;55.648;13.208;2023-05-19T08:14:18;18.40;99.90
16154;DHT22;8182;55.648;13.208;2023-05-19T08:16:47;18.50;99.90
16154;DHT22;8182;55.648;13.208;2023-05-19T08:19:14;18.50;99.90
16154;DHT22;8182;55.648;13.208;2023-05-19T08:21:43;18.90;99.90
16154;DHT22;8182;55.648;13.208;2023-05-19T08:24:10;18.80;99.90
16154;DHT22;8182;55.648;13.208;2023-05-19T08:26:37;19.10;99.90
16154;DHT22;8182;55.648;13.208;2023-05-19T08:29:07;19.10;99.90
16154;DHT22;8182;55.648;13.208;2023-05-19T08:31:34;19.30;99.90
16154;DHT22;8182;55.648;13.208;2023-05-19T08:34:01;19.40;99.90
16154;DHT22;8182;55.648;13.208;2023-05-19T08:36:28;19.30;99.90
16154;DHT22;8182;55.648;13.208;2023-05-19T08:38:56;19.20;99.90
16154;DHT22;8182;55.648;13.208;2023-05-19T08:41:23;19.20;99.90
16154;DHT22;8182;55.648;13.208;2023-05-19T08:43:51;19.30;99.90
16154;DHT22;8182;55.648;13.208;2023-05-19T08:46:19;19.50;99.90
16154;DHT22;8182;55.648;13.208;2023-05-19T08:48:47;19.60;99.90
16154;DHT22;8182;55.648;13.208;2023-05-19T08:51:30;19.60;99.90
16154;DHT22;8182;55.648;13.208;2023-05-19T08:54:11;19.40;99.90
16154;DHT22;8182;55.648;13.208;2023-05-19T08:56:42;19.40;99.90
16154;DHT22;8182;55.648;13.208;2023-05-19T08:59:13;19.50;99.90
16154;DHT22;8182;55.648;13.208;2023-05-19T09:01:42;19.50;99.90
16154;DHT22;8182;55.648;13.208;2023-05-19T09:04:10;19.90;99.90
16154;DHT22;8182;55.648;13.208;2023-05-19T09:06:37;20.00;99.90
16154;DHT22;8182;55.648;13.208;2023-05-19T09:09:07;19.90;99.90
16154;DHT22;8182;55.648;13.208;2023-05-19T09:11:34;20.10;99.90
16154;DHT22;8182;55.648;13.208;2023-05-19T09:14:05;20.60;99.90
16154;DHT22;8182;55.648;13.208;2023-05-19T09:16:32;20.70;99.90
16154;DHT22;8182;55.648;13.208;2023-05-19T09:18:59;20.70;99.90
16154;DHT22;8182;55.648;13.208;2023-05-19T09:21:27;20.90;99.90
16154;DHT22;8182;55.648;13.208;2023-05-19T09:23:56;21.30;99.90
16154;DHT22;8182;55.648;13.208;2023-05-19T09:26:35;21.40;99.90
16154;DHT22;8182;55.648;13.208;2023-05-19T09:29:10;21.50;99.90
16154;DHT22;8182;55.648;13.208;2023-05-19T09:31:37;21.60;99.90
16154;DHT22;8182;55.648;13.208;2023-05-19T09:34:10;20.80;99.90
16154;DHT22;8182;55.648;13.208;2023-05-19T09:36:38;21.00;99.90
16154;DHT22;8182;55.648;13.208;2023-05-19T09:39:12;21.10;99.90
16154;DHT22;8182;55.648;13.208;2023-05-19T09:41:44;21.50;99.90
16154;DHT22;8182;55.648;13.208;2023-05-19T09:44:20;21.60;99.90
16154;DHT22;8182;55.648;13.208;2023-05-19T09:46:47;21.70;99.90
16154;DHT22;8182;55.648;13.208;2023-05-19T09:49:19;21.90;99.90
16154;DHT22;8182;55.648;13.208;2023-05-19T09:51:50;22.20;99.90
16154;DHT22;8182;55.648;13.208;2023-05-19T09:54:19;22.70;99.90
16154;DHT22;8182;55.648;13.208;2023-05-19T09:57:02;22.50;99.90
16154;DHT22;8182;55.648;13.208;2023-05-19T09:59:30;21.70;99.90
16154;DHT22;8182;55.648;13.208;2023-05-19T10:01:59;22.30;99.90
16154;DHT22;8182;55.648;13.208;2023-05-19T10:04:28;22.50;99.90
16154;DHT22;8182;55.648;13.208;2023-05-19T10:06:57;22.30;99.90
16154;DHT22;8182;55.648;13.208;2023-05-19T10:09:30;22.10;99.90
16154;DHT22;8182;55.648;13.208;2023-05-19T10:12:00;22.60;99.90
16154;DHT22;8182;55.648;13.208;2023-05-19T10:14:28;22.80;99.90
16154;DHT22;8182;55.648;13.208;2023-05-19T10:16:57;23.00;99.90
16154;DHT22;8182;55.648;13.208;2023-05-19T10:19:25;23.10;99.90
16154;DHT22;8182;55.648;13.208;2023-05-19T10:21:56;23.20;99.90
16154;DHT22;8182;55.648;13.208;2023-05-19T10:24:23;23.20;99.90
16154;DHT22;8182;55.648;13.208;2023-05-19T10:26:53;23.30;99.90
16154;DHT22;8182;55.648;13.208;2023-05-19T10:29:27;23.90;99.90
16154;DHT22;8182;55.648;13.208;2023-05-19T10:31:55;23.50;99.90
16154;DHT22;8182;55.648;13.208;2023-05-19T10:34:47;23.20;99.90
16154;DHT22;8182;55.648;13.208;2023-05-19T10:37:25;23.50;99.90
16154;DHT22;8182;55.648;13.208;2023-05-19T10:39:54;23.20;99.90
16154;DHT22;8182;55.648;13.208;2023-05-19T10:42:39;23.90;99.90
16154;DHT22;8182;55.648;13.208;2023-05-19T10:45:14;23.40;99.90
16154;DHT22;8182;55.648;13.208;2023-05-19T10:47:46;23.90;99.90
16154;DHT22;8182;55.648;13.208;2023-05-19T10:50:14;24.00;99.90
16154;DHT22;8182;55.648;13.208;2023-05-19T10:52:41;23.50;99.90
16154;DHT22;8182;55.648;13.208;2023-05-19T10:55:11;23.60;99.90
16154;DHT22;8182;55.648;13.208;2023-05-19T10:57:52;23.10;99.90
16154;DHT22;8182;55.648;13.208;2023-05-19T11:00:29;23.40;99.90
16154;DHT22;8182;55.648;13.208;2023-05-19T11:03:11;22.60;99.90
16154;DHT22;8182;55.648;13.208;2023-05-19T11:05:39;23.00;99.90
16154;DHT22;8182;55.648;13.208;2023-05-19T11:08:06;23.40;99.90
16154;DHT22;8182;55.648;13.208;2023-05-19T11:10:33;23.60;99.90
16154;DHT22;8182;55.648;13.208;2023-05-19T11:13:01;23.50;99.90
16154;DHT22;8182;55.648;13.208;2023-05-19T11:15:34;23.40;99.90
16154;DHT22;8182;55.648;13.208;2023-05-19T11:18:03;23.30;99.90
16154;DHT22;8182;55.648;13.208;2023-05-19T11:20:30;23.20;99.90
16154;DHT22;8182;55.648;13.208;2023-05-19T11:23:06;23.10;99.90
16154;DHT22;8182;55.648;13.208;2023-05-19T11:25:44;22.80;99.90
16154;DHT22;8182;55.648;13.208;2023-05-19T11:28:11;22.60;99.90
16154;DHT22;8182;55.648;13.208;2023-05-19T11:30:44;22.60;99.90
16154;DHT22;8182;55.648;13.208;2023-05-19T11:33:11;22.40;99.90
16154;DHT22;8182;55.648;13.208;2023-05-19T11:35:39;22.10;99.90
16154;DHT22;8182;55.648;13.208;2023-05-19T11:38:06;22.20;99.90
16154;DHT22;8182;55.648;13.208;2023-05-19T11:40:33;22.30;99.90
16154;DHT22;8182;55.648;13.208;2023-05-19T11:43:00;22.50;99.90
16154;DHT22;8182;55.648;13.208;2023-05-19T11:45:31;22.40;99.90
16154;DHT22;8182;55.648;13.208;2023-05-19T11:48:00;22.30;99.90
16154;DHT22;8182;55.648;13.208;2023-05-19T11:50:30;22.00;99.90
16154;DHT22;8182;55.648;13.208;2023-05-19T11:52:59;22.10;99.90
16154;DHT22;8182;55.648;13.208;2023-05-19T11:55:28;22.20;99.90
16154;DHT22;8182;55.648;13.208;2023-05-19T11:58:00;22.20;99.90
16154;DHT22;8182;55.648;13.208;2023-05-19T12:00:34;22.10;99.90
16154;DHT22;8182;55.648;13.208;2023-05-19T12:03:03;22.10;99.90
16154;DHT22;8182;55.648;13.208;2023-05-19T12:05:39;22.10;99.90
16154;DHT22;8182;55.648;13.208;2023-05-19T12:08:07;22.20;99.90
16154;DHT22;8182;55.648;13.208;2023-05-19T12:10:34;22.20;99.90
16154;DHT22;8182;55.648;13.208;2023-05-19T12:13:02;22.10;99.90
16154;DHT22;8182;55.648;13.208;2023-05-19T12:15:34;22.00;99.90
16154;DHT22;8182;55.648;13.208;2023-05-19T12:18:03;22.10;99.90
16154;DHT22;8182;55.648;13.208;2023-05-19T12:20:34;22.00;99.90
16154;DHT22;8182;55.648;13.208;2023-05-19T12:23:02;22.10;99.90
16154;DHT22;8182;55.648;13.208;2023-05-19T12:25:29;22.10;99.90
16154;DHT22;8182;55.648;13.208;2023-05-19T12:28:00;22.00;99.90
16154;DHT22;8182;55.648;13.208;2023-05-19T12:30:30;22.10;99.90
16154;DHT22;8182;55.648;13.208;2023-05-19T12:33:00;22.10;99.90
16154;DHT22;8182;55.648;13.208;2023-05-19T12:35:36;22.10;99.90
16154;DHT22;8182;55.648;13.208;2023-05-19T12:38:06;22.10;99.90
16154;DHT22;8182;55.648;13.208;2023-05-19T12:40:33;22.00;99.90
16154;DHT22;8182;55.648;13.208;2023-05-19T12:43:00;21.90;99.90
16154;DHT22;8182;55.648;13.208;2023-05-19T12:45:34;21.90;99.90
16154;DHT22;8182;55.648;13.208;2023-05-19T12:48:02;21.80;99.90
16154;DHT22;8182;55.648;13.208;2023-05-19T12:50:31;21.80;99.90
16154;DHT22;8182;55.648;13.208;2023-05-19T12:53:00;21.90;99.90
16154;DHT22;8182;55.648;13.208;2023-05-19T12:55:37;21.90;99.90
16154;DHT22;8182;55.648;13.208;2023-05-19T12:58:06;21.90;99.90
16154;DHT22;8182;55.648;13.208;2023-05-19T13:00:39;21.70;99.90
16154;DHT22;8182;55.648;13.208;2023-05-19T13:03:13;21.70;99.90
16154;DHT22;8182;55.648;13.208;2023-05-19T13:05:41;21.70;99.90
16154;DHT22;8182;55.648;13.208;2023-05-19T13:08:12;21.70;99.90
16154;DHT22;8182;55.648;13.208;2023-05-19T13:10:46;21.70;99.90
16154;DHT22;8182;55.648;13.208;2023-05-19T13:13:13;21.70;99.90
16154;DHT22;8182;55.648;13.208;2023-05-19T13:15:41;21.80;99.90
16154;DHT22;8182;55.648;13.208;2023-05-19T13:18:10;21.80;99.90
16154;DHT22;8182;55.648;13.208;2023-05-19T13:20:38;21.80;99.90
16154;DHT22;8182;55.648;13.208;2023-05-19T13:23:06;21.80;99.90
16154;DHT22;8182;55.648;13.208;2023-05-19T13:25:34;21.80;99.90
16154;DHT22;8182;55.648;13.208;2023-05-19T13:28:02;21.80;99.90
16154;DHT22;8182;55.648;13.208;2023-05-19T13:30:30;21.80;99.90
16154;DHT22;8182;55.648;13.208;2023-05-19T13:32:57;21.80;99.90
16154;DHT22;8182;55.648;13.208;2023-05-19T13:35:24;21.80;99.90
16154;DHT22;8182;55.648;13.208;2023-05-19T13:37:51;21.70;99.90
16154;DHT22;8182;55.648;13.208;2023-05-19T13:40:19;21.70;99.90
16154;DHT22;8182;55.648;13.208;2023-05-19T13:42:48;21.70;99.90
16154;DHT22;8182;55.648;13.208;2023-05-19T13:45:15;21.70;99.90
16154;DHT22;8182;55.648;13.208;2023-05-19T13:47:42;21.60;99.90
16154;DHT22;8182;55.648;13.208;2023-05-19T13:50:09;21.60;99.90
16154;DHT22;8182;55.648;13.208;2023-05-19T13:52:36;21.60;99.90
16154;DHT22;8182;55.648;13.208;2023-05-19T13:55:04;21.60;99.90
16154;DHT22;8182;55.648;13.208;2023-05-19T13:57:31;21.60;99.90
16154;DHT22;8182;55.648;13.208;2023-05-19T14:00:00;21.60;99.90
16154;DHT22;8182;55.648;13.208;2023-05-19T14:02:29;21.40;99.90
16154;DHT22;8182;55.648;13.208;2023-05-19T14:04:56;21.30;99.90
16154;DHT22;8182;55.648;13.208;2023-05-19T14:07:23;21.30;99.90
16154;DHT22;8182;55.648;13.208;2023-05-19T14:09:51;21.40;99.90
16154;DHT22;8182;55.648;13.208;2023-05-19T14:12:19;21.30;99.90
16154;DHT22;8182;55.648;13.208;2023-05-19T14:14:46;21.30;99.90
16154;DHT22;8182;55.648;13.208;2023-05-19T14:17:15;21.10;99.90
16154;DHT22;8182;55.648;13.208;2023-05-19T14:19:42;21.00;99.90
16154;DHT22;8182;55.648;13.208;2023-05-19T14:22:09;20.90;99.90
16154;DHT22;8182;55.648;13.208;2023-05-19T14:24:40;20.90;99.90
16154;DHT22;8182;55.648;13.208;2023-05-19T14:27:07;20.90;99.90
16154;DHT22;8182;55.648;13.208;2023-05-19T14:29:34;20.90;99.90
16154;DHT22;8182;55.648;13.208;2023-05-19T14:32:01;20.80;99.90
16154;DHT22;8182;55.648;13.208;2023-05-19T14:34:30;20.80;99.90
16154;DHT22;8182;55.648;13.208;2023-05-19T14:36:57;20.70;99.90
16154;DHT22;8182;55.648;13.208;2023-05-19T14:39:24;20.60;99.90
16154;DHT22;8182;55.648;13.208;2023-05-19T14:41:51;20.60;99.90
16154;DHT22;8182;55.648;13.208;2023-05-19T14:44:18;20.50;99.90
16154;DHT22;8182;55.648;13.208;2023-05-19T14:46:45;20.50;99.90
16154;DHT22;8182;55.648;13.208;2023-05-19T14:49:12;20.40;99.90
16154;DHT22;8182;55.648;13.208;2023-05-19T14:51:43;20.30;99.90
16154;DHT22;8182;55.648;13.208;2023-05-19T14:54:10;20.40;99.90
16154;DHT22;8182;55.648;13.208;2023-05-19T14:56:37;20.30;99.90
16154;DHT22;8182;55.648;13.208;2023-05-19T14:59:04;20.30;99.90
16154;DHT22;8182;55.648;13.208;2023-05-19T15:01:31;20.30;99.90
16154;DHT22;8182;55.648;13.208;2023-05-19T15:03:58;20.30;99.90
16154;DHT22;8182;55.648;13.208;2023-05-19T15:06:25;20.20;99.90
16154;DHT22;8182;55.648;13.208;2023-05-19T15:08:54;20.10;99.90
16154;DHT22;8182;55.648;13.208;2023-05-19T15:11:21;20.10;99.90
16154;DHT22;8182;55.648;13.208;2023-05-19T15:13:48;20.00;99.90
16154;DHT22;8182;55.648;13.208;2023-05-19T15:16:15;20.00;99.90
16154;DHT22;8182;55.648;13.208;2023-05-19T15:18:42;19.90;99.90
16154;DHT22;8182;55.648;13.208;2023-05-19T15:21:09;19.80;99.90
16154;DHT22;8182;55.648;13.208;2023-05-19T15:23:36;19.80;99.90
16154;DHT22;8182;55.648;13.208;2023-05-19T15:26:05;19.70;99.90
16154;DHT22;8182;55.648;13.208;2023-05-19T15:28:32;19.60;99.90
16154;DHT22;8182;55.648;13.208;2023-05-19T15:30:59;19.70;99.90
16154;DHT22;8182;55.648;13.208;2023-05-19T15:33:27;19.60;99.90
16154;DHT22;8182;55.648;13.208;2023-05-19T15:35:55;19.50;99.90
16154;DHT22;8182;55.648;13.208;2023-05-19T15:38:22;19.50;99.90
16154;DHT22;8182;55.648;13.208;2023-05-19T15:40:49;19.40;99.90
16154;DHT22;8182;55.648;13.208;2023-05-19T15:43:18;19.40;99.90
16154;DHT22;8182;55.648;13.208;2023-05-19T15:45:46;19.40;99.90
16154;DHT22;8182;55.648;13.208;2023-05-19T15:48:16;19.40;99.90